sensor_id;sensor_type;location;lat;lon;timestamp;pressure;altitude;pressure_sealevel;temperature;humidity
43838;BME280;65998;46.256;7.534;2023-04-02T00:03:06;86237.09;;;20.29;47.45
43838;BME280;65998;46.256;7.534;2023-04-02T00:05:42;86234.53;;;20.25;47.93
43838;BME280;65998;46.256;7.534;2023-04-02T00:08:43;86236.78;;;20.22;48.07
43838;BME280;65998;46.256;7.534;2023-04-02T00:11:29;86231.53;;;20.16;47.85
43838;BME280;65998;46.256;7.534;2023-04-02T00:13:59;86231.78;;;20.12;47.60
43838;BME280;65998;46.256;7.534;2023-04-02T00:16:25;86238.47;;;20.04;47.64
43838;BME280;65998;46.256;7.534;2023-04-02T00:18:54;86232.78;;;20.06;47.46
43838;BME280;65998;46.256;7.534;2023-04-02T00:21:28;86234.34;;;20.03;47.86
43838;BME280;65998;46.256;7.534;2023-04-02T00:23:55;86233.91;;;19.99;47.63
43838;BME280;65998;46.256;7.534;2023-04-02T00:28:55;86239.25;;;19.90;47.62
43838;BME280;65998;46.256;7.534;2023-04-02T00:31:22;86243.50;;;19.89;47.94
43838;BME280;65998;46.256;7.534;2023-04-02T00:33:48;86247.06;;;19.88;48.11
43838;BME280;65998;46.256;7.534;2023-04-02T00:36:14;86241.72;;;19.84;48.25
43838;BME280;65998;46.256;7.534;2023-04-02T00:38:43;86241.72;;;19.84;47.80
43838;BME280;65998;46.256;7.534;2023-04-02T00:41:17;86234.13;;;19.82;48.24
43838;BME280;65998;46.256;7.534;2023-04-02T00:43:46;86239.25;;;19.77;48.51
43838;BME280;65998;46.256;7.534;2023-04-02T00:46:19;86237.03;;;19.80;48.56
43838;BME280;65998;46.256;7.534;2023-04-02T00:51:25;86236.66;;;19.73;48.93
43838;BME280;65998;46.256;7.534;2023-04-02T00:53:55;86234.44;;;19.76;48.42
43838;BME280;65998;46.256;7.534;2023-04-02T00:57:02;86238.69;;;19.75;48.27
43838;BME280;65998;46.256;7.534;2023-04-02T00:59:29;86238.78;;;19.73;48.08
43838;BME280;65998;46.256;7.534;2023-04-02T01:04:40;86239.13;;;19.67;47.97
43838;BME280;65998;46.256;7.534;2023-04-02T01:07:09;86232.88;;;19.66;47.94
43838;BME280;65998;46.256;7.534;2023-04-02T01:12:33;86235.09;;;19.64;47.86
43838;BME280;65998;46.256;7.534;2023-04-02T01:31:59;86230.50;;;19.45;47.79
43838;BME280;65998;46.256;7.534;2023-04-02T01:34:27;86233.50;;;19.41;47.75
43838;BME280;65998;46.256;7.534;2023-04-02T01:42:40;86243.97;;;19.41;47.87
43838;BME280;65998;46.256;7.534;2023-04-02T01:45:13;86237.16;;;19.38;47.76
43838;BME280;65998;46.256;7.534;2023-04-02T01:47:40;86234.59;;;19.34;47.90
43838;BME280;65998;46.256;7.534;2023-04-02T01:50:25;86231.69;;;19.36;48.18
43838;BME280;65998;46.256;7.534;2023-04-02T01:52:54;86240.84;;;19.34;47.93
43838;BME280;65998;46.256;7.534;2023-04-02T01:58:06;86241.94;;;19.27;48.06
43838;BME280;65998;46.256;7.534;2023-04-02T02:00:34;86247.41;;;19.29;48.39
43838;BME280;65998;46.256;7.534;2023-04-02T02:03:01;86247.03;;;19.22;47.98
43838;BME280;65998;46.256;7.534;2023-04-02T02:05:27;86252.06;;;19.20;48.00
43838;BME280;65998;46.256;7.534;2023-04-02T02:07:55;86245.91;;;19.17;47.94
43838;BME280;65998;46.256;7.534;2023-04-02T02:10:33;86244.47;;;19.18;48.09
43838;BME280;65998;46.256;7.534;2023-04-02T02:13:00;86243.56;;;19.09;47.99
43838;BME280;65998;46.256;7.534;2023-04-02T02:15:26;86240.88;;;19.07;47.96
43838;BME280;65998;46.256;7.534;2023-04-02T02:17:58;86251.34;;;19.06;47.97
43838;BME280;65998;46.256;7.534;2023-04-02T02:20:27;86250.13;;;19.03;47.77
43838;BME280;65998;46.256;7.534;2023-04-02T02:22:53;86251.09;;;18.98;47.96
43838;BME280;65998;46.256;7.534;2023-04-02T02:25:23;86253.88;;;18.98;47.79
43838;BME280;65998;46.256;7.534;2023-04-02T02:33:22;86263.91;;;18.93;47.76
43838;BME280;65998;46.256;7.534;2023-04-02T02:36:04;86269.56;;;18.91;47.94
43838;BME280;65998;46.256;7.534;2023-04-02T02:41:21;86280.22;;;18.86;48.17
43838;BME280;65998;46.256;7.534;2023-04-02T02:44:09;86280.34;;;18.84;48.14
43838;BME280;65998;46.256;7.534;2023-04-02T02:46:55;86279.00;;;18.83;48.08
43838;BME280;65998;46.256;7.534;2023-04-02T02:49:27;86289.56;;;18.80;48.10
43838;BME280;65998;46.256;7.534;2023-04-02T02:52:05;86286.88;;;18.78;47.92
43838;BME280;65998;46.256;7.534;2023-04-02T02:54:41;86288.31;;;18.77;47.98
43838;BME280;65998;46.256;7.534;2023-04-02T02:57:16;86290.53;;;18.75;48.11
43838;BME280;65998;46.256;7.534;2023-04-02T02:59:44;86287.94;;;18.71;48.09
43838;BME280;65998;46.256;7.534;2023-04-02T03:02:10;86294.38;;;18.67;48.85
43838;BME280;65998;46.256;7.534;2023-04-02T03:04:37;86294.28;;;18.69;49.34
43838;BME280;65998;46.256;7.534;2023-04-02T03:07:03;86292.25;;;18.68;49.41
43838;BME280;65998;46.256;7.534;2023-04-02T03:09:40;86285.16;;;18.71;49.07
43838;BME280;65998;46.256;7.534;2023-04-02T03:15:18;86290.66;;;18.73;48.70
43838;BME280;65998;46.256;7.534;2023-04-02T03:18:01;86289.38;;;18.70;48.31
43838;BME280;65998;46.256;7.534;2023-04-02T03:20:51;86289.38;;;18.70;48.10
43838;BME280;65998;46.256;7.534;2023-04-02T03:23:27;86302.63;;;18.69;48.65
43838;BME280;65998;46.256;7.534;2023-04-02T03:26:00;86300.63;;;18.68;48.52
43838;BME280;65998;46.256;7.534;2023-04-02T03:28:35;86303.59;;;18.64;48.02
43838;BME280;65998;46.256;7.534;2023-04-02T03:31:07;86302.25;;;18.63;48.02
43838;BME280;65998;46.256;7.534;2023-04-02T03:33:37;86307.91;;;18.61;48.01
43838;BME280;65998;46.256;7.534;2023-04-02T03:36:30;86318.34;;;18.60;48.06
43838;BME280;65998;46.256;7.534;2023-04-02T03:39:13;86310.88;;;18.57;48.04
43838;BME280;65998;46.256;7.534;2023-04-02T03:41:53;86313.75;;;18.55;47.49
43838;BME280;65998;46.256;7.534;2023-04-02T03:44:31;86315.97;;;18.52;47.52
43838;BME280;65998;46.256;7.534;2023-04-02T03:47:09;86316.06;;;18.50;47.95
43838;BME280;65998;46.256;7.534;2023-04-02T03:49:46;86326.63;;;18.47;47.60
43838;BME280;65998;46.256;7.534;2023-04-02T03:52:22;86326.06;;;18.45;47.60
43838;BME280;65998;46.256;7.534;2023-04-02T03:54:49;86326.44;;;18.37;47.66
43838;BME280;65998;46.256;7.534;2023-04-02T03:57:28;86334.59;;;18.41;47.51
43838;BME280;65998;46.256;7.534;2023-04-02T04:02:55;86331.25;;;18.38;47.49
43838;BME280;65998;46.256;7.534;2023-04-02T04:05:36;86329.31;;;18.35;47.53
43838;BME280;65998;46.256;7.534;2023-04-02T04:08:13;86337.78;;;18.33;47.82
43838;BME280;65998;46.256;7.534;2023-04-02T04:10:41;86333.84;;;18.28;47.71
43838;BME280;65998;46.256;7.534;2023-04-02T04:13:16;86336.53;;;18.30;47.39
43838;BME280;65998;46.256;7.534;2023-04-02T04:15:50;86335.56;;;18.21;47.56
43838;BME280;65998;46.256;7.534;2023-04-02T04:18:49;86336.03;;;18.25;47.52
43838;BME280;65998;46.256;7.534;2023-04-02T04:21:24;86338.94;;;18.23;47.40
43838;BME280;65998;46.256;7.534;2023-04-02T04:23:51;86334.41;;;18.15;47.51
43838;BME280;65998;46.256;7.534;2023-04-02T04:26:24;86339.13;;;18.19;47.60
43838;BME280;65998;46.256;7.534;2023-04-02T04:29:15;86337.09;;;18.17;47.66
43838;BME280;65998;46.256;7.534;2023-04-02T04:31:49;86339.31;;;18.15;47.59
43838;BME280;65998;46.256;7.534;2023-04-02T04:34:19;86338.06;;;18.12;47.48
43838;BME280;65998;46.256;7.534;2023-04-02T04:36:52;86337.41;;;18.11;47.66
43838;BME280;65998;46.256;7.534;2023-04-02T04:39:27;86338.94;;;18.08;47.53
43838;BME280;65998;46.256;7.534;2023-04-02T04:41:57;86339.03;;;18.06;47.89
43838;BME280;65998;46.256;7.534;2023-04-02T04:44:43;86341.13;;;18.06;47.86
43838;BME280;65998;46.256;7.534;2023-04-02T04:47:21;86352.94;;;18.06;48.57
43838;BME280;65998;46.256;7.534;2023-04-02T04:52:40;86354.47;;;18.03;48.72
43838;BME280;65998;46.256;7.534;2023-04-02T04:55:29;86347.47;;;18.04;48.38
43838;BME280;65998;46.256;7.534;2023-04-02T04:58:23;86346.13;;;18.03;48.39
43838;BME280;65998;46.256;7.534;2023-04-02T05:01:04;86351.09;;;18.01;48.71
43838;BME280;65998;46.256;7.534;2023-04-02T05:03:45;86350.72;;;17.94;49.22
43838;BME280;65998;46.256;7.534;2023-04-02T05:09:00;86343.72;;;17.95;48.73
43838;BME280;65998;46.256;7.534;2023-04-02T05:11:43;86351.28;;;17.97;48.72
43838;BME280;65998;46.256;7.534;2023-04-02T05:14:22;86352.81;;;17.94;48.95
43838;BME280;65998;46.256;7.534;2023-04-02T05:17:00;86352.16;;;17.93;48.69
43838;BME280;65998;46.256;7.534;2023-04-02T05:19:44;86356.47;;;17.90;48.80
43838;BME280;65998;46.256;7.534;2023-04-02T05:33:23;86368.34;;;17.89;48.99
43838;BME280;65998;46.256;7.534;2023-04-02T05:35:58;86362.19;;;17.86;48.87
43838;BME280;65998;46.256;7.534;2023-04-02T05:38:28;86371.41;;;17.82;48.76
43838;BME280;65998;46.256;7.534;2023-04-02T05:41:27;86370.53;;;17.86;48.88
43838;BME280;65998;46.256;7.534;2023-04-02T05:46:46;86379.66;;;17.84;49.44
43838;BME280;65998;46.256;7.534;2023-04-02T05:49:26;86377.53;;;17.85;49.42
43838;BME280;65998;46.256;7.534;2023-04-02T05:51:56;86370.63;;;17.84;49.36
43838;BME280;65998;46.256;7.534;2023-04-02T05:54:33;86374.09;;;17.84;49.29
43838;BME280;65998;46.256;7.534;2023-04-02T05:57:05;86383.09;;;17.85;49.46
43838;BME280;65998;46.256;7.534;2023-04-02T05:59:37;86387.22;;;17.86;49.51
43838;BME280;65998;46.256;7.534;2023-04-02T06:02:21;86389.81;;;17.90;49.61
43838;BME280;65998;46.256;7.534;2023-04-02T06:04:57;86387.78;;;17.89;49.60
43838;BME280;65998;46.256;7.534;2023-04-02T06:07:32;86383.66;;;17.88;49.36
43838;BME280;65998;46.256;7.534;2023-04-02T06:10:17;86398.91;;;17.89;49.55
43838;BME280;65998;46.256;7.534;2023-04-02T06:15:21;86390.09;;;17.84;48.57
43838;BME280;65998;46.256;7.534;2023-04-02T06:18:00;86385.97;;;17.83;48.46
43838;BME280;65998;46.256;7.534;2023-04-02T06:20:30;86396.59;;;17.78;48.52
43838;BME280;65998;46.256;7.534;2023-04-02T06:23:30;86395.84;;;17.80;48.57
43838;BME280;65998;46.256;7.534;2023-04-02T06:26:21;86396.59;;;17.78;48.48
43838;BME280;65998;46.256;7.534;2023-04-02T06:33:49;86401.41;;;17.63;49.06
43838;BME280;65998;46.256;7.534;2023-04-02T06:36:15;86406.38;;;17.61;48.90
43838;BME280;65998;46.256;7.534;2023-04-02T06:38:41;86406.94;;;17.63;48.78
43838;BME280;65998;46.256;7.534;2023-04-02T06:41:18;86406.94;;;17.63;48.74
43838;BME280;65998;46.256;7.534;2023-04-02T06:43:50;86407.81;;;17.60;48.17
43838;BME280;65998;46.256;7.534;2023-04-02T06:46:31;86415.72;;;17.53;48.37
43838;BME280;65998;46.256;7.534;2023-04-02T06:49:22;86410.56;;;17.60;48.59
43838;BME280;65998;46.256;7.534;2023-04-02T06:51:52;86417.56;;;17.59;48.56
43838;BME280;65998;46.256;7.534;2023-04-02T06:54:19;86419.84;;;17.54;48.48
43838;BME280;65998;46.256;7.534;2023-04-02T06:59:12;86431.72;;;17.52;48.53
43838;BME280;65998;46.256;7.534;2023-04-02T07:01:44;86435.09;;;17.55;48.68
43838;BME280;65998;46.256;7.534;2023-04-02T07:04:12;86439.28;;;17.54;48.86
43838;BME280;65998;46.256;7.534;2023-04-02T07:06:38;86442.84;;;17.52;48.95
43838;BME280;65998;46.256;7.534;2023-04-02T07:09:04;86428.19;;;17.54;49.06
43838;BME280;65998;46.256;7.534;2023-04-02T07:11:30;86433.84;;;17.52;49.11
43838;BME280;65998;46.256;7.534;2023-04-02T07:13:56;86436.59;;;17.52;48.97
43838;BME280;65998;46.256;7.534;2023-04-02T07:16:24;86442.66;;;17.56;48.99
43838;BME280;65998;46.256;7.534;2023-04-02T07:18:50;86440.72;;;17.53;49.10
43838;BME280;65998;46.256;7.534;2023-04-02T07:21:17;86442.06;;;17.54;49.35
43838;BME280;65998;46.256;7.534;2023-04-02T07:23:42;86438.63;;;17.53;49.58
43838;BME280;65998;46.256;7.534;2023-04-02T07:26:14;86448.13;;;17.59;49.67
43838;BME280;65998;46.256;7.534;2023-04-02T07:28:40;86441.31;;;17.55;49.71
43838;BME280;65998;46.256;7.534;2023-04-02T07:31:29;86432.03;;;17.61;49.52
43838;BME280;65998;46.256;7.534;2023-04-02T07:33:57;86441.81;;;17.60;49.80
43838;BME280;65998;46.256;7.534;2023-04-02T07:36:25;86445.25;;;17.61;49.91
43838;BME280;65998;46.256;7.534;2023-04-02T07:38:51;86441.81;;;17.60;49.74
43838;BME280;65998;46.256;7.534;2023-04-02T07:41:18;86445.16;;;17.63;49.84
43838;BME280;65998;46.256;7.534;2023-04-02T07:43:44;86449.47;;;17.60;49.99
43838;BME280;65998;46.256;7.534;2023-04-02T07:46:10;86436.16;;;17.62;49.95
43838;BME280;65998;46.256;7.534;2023-04-02T07:48:36;86447.94;;;17.63;49.87
43838;BME280;65998;46.256;7.534;2023-04-02T07:51:02;86451.00;;;17.73;50.26
43838;BME280;65998;46.256;7.534;2023-04-02T07:53:35;86455.63;;;17.79;49.84
43838;BME280;65998;46.256;7.534;2023-04-02T07:56:02;86450.16;;;17.77;49.97
43838;BME280;65998;46.256;7.534;2023-04-02T07:58:29;86450.06;;;17.79;49.91
43838;BME280;65998;46.256;7.534;2023-04-02T08:00:56;86454.88;;;17.80;49.83
43838;BME280;65998;46.256;7.534;2023-04-02T08:03:22;86463.19;;;17.80;50.04
43838;BME280;65998;46.256;7.534;2023-04-02T08:05:52;86469.16;;;17.87;49.69
43838;BME280;65998;46.256;7.534;2023-04-02T08:08:20;86465.75;;;18.01;48.57
43838;BME280;65998;46.256;7.534;2023-04-02T08:10:46;86468.09;;;18.26;47.65
43838;BME280;65998;46.256;7.534;2023-04-02T08:13:12;86472.81;;;18.44;47.23
43838;BME280;65998;46.256;7.534;2023-04-02T08:15:38;86469.97;;;18.61;46.93
43838;BME280;65998;46.256;7.534;2023-04-02T08:18:04;86471.44;;;18.75;46.70
43838;BME280;65998;46.256;7.534;2023-04-02T08:20:31;86471.06;;;18.83;46.61
43838;BME280;65998;46.256;7.534;2023-04-02T08:22:56;86472.69;;;18.93;46.29
43838;BME280;65998;46.256;7.534;2023-04-02T08:25:23;86470.84;;;19.02;46.21
43838;BME280;65998;46.256;7.534;2023-04-02T08:27:49;86475.38;;;19.09;46.18
43838;BME280;65998;46.256;7.534;2023-04-02T08:30:16;86473.53;;;19.19;45.92
43838;BME280;65998;46.256;7.534;2023-04-02T08:32:42;86480.34;;;19.22;45.92
43838;BME280;65998;46.256;7.534;2023-04-02T08:35:10;86483.50;;;19.28;45.70
43838;BME280;65998;46.256;7.534;2023-04-02T08:37:36;86488.19;;;19.32;45.62
43838;BME280;65998;46.256;7.534;2023-04-02T08:40:04;86491.47;;;19.36;45.64
43838;BME280;65998;46.256;7.534;2023-04-02T08:42:37;86494.72;;;19.41;45.71
43838;BME280;65998;46.256;7.534;2023-04-02T08:45:40;86488.84;;;19.47;45.34
43838;BME280;65998;46.256;7.534;2023-04-02T08:48:08;86491.63;;;19.47;45.13
43838;BME280;65998;46.256;7.534;2023-04-02T08:50:42;86490.19;;;19.48;45.26
43838;BME280;65998;46.256;7.534;2023-04-02T08:53:24;86485.94;;;19.49;45.17
43838;BME280;65998;46.256;7.534;2023-04-02T08:58:48;86496.31;;;19.51;45.13
43838;BME280;65998;46.256;7.534;2023-04-02T09:03:59;86491.63;;;19.47;45.59
43838;BME280;65998;46.256;7.534;2023-04-02T09:06:26;86491.53;;;19.49;45.38
43838;BME280;65998;46.256;7.534;2023-04-02T09:08:52;86497.66;;;19.52;45.54
43838;BME280;65998;46.256;7.534;2023-04-02T09:11:54;86495.94;;;19.59;45.45
43838;BME280;65998;46.256;7.534;2023-04-02T09:14:44;86501.53;;;19.59;45.71
43838;BME280;65998;46.256;7.534;2023-04-02T09:17:17;86498.06;;;19.58;45.77
43838;BME280;65998;46.256;7.534;2023-04-02T09:24:59;86502.09;;;19.61;46.21
43838;BME280;65998;46.256;7.534;2023-04-02T09:27:32;86508.34;;;19.62;46.49
43838;BME280;65998;46.256;7.534;2023-04-02T09:30:21;86508.34;;;19.62;46.74
43838;BME280;65998;46.256;7.534;2023-04-02T09:32:51;86507.66;;;19.61;46.88
43838;BME280;65998;46.256;7.534;2023-04-02T09:35:20;86510.44;;;19.61;47.04
43838;BME280;65998;46.256;7.534;2023-04-02T09:37:47;86514.69;;;19.60;47.09
43838;BME280;65998;46.256;7.534;2023-04-02T09:40:23;86509.69;;;19.63;46.96
43838;BME280;65998;46.256;7.534;2023-04-02T09:43:01;86506.88;;;19.63;46.77
43838;BME280;65998;46.256;7.534;2023-04-02T09:45:27;86514.13;;;19.58;46.80
43838;BME280;65998;46.256;7.534;2023-04-02T09:47:54;86506.31;;;19.60;46.70
43838;BME280;65998;46.256;7.534;2023-04-02T09:50:28;86512.56;;;19.61;46.57
43838;BME280;65998;46.256;7.534;2023-04-02T09:52:54;86514.13;;;19.58;46.66
43838;BME280;65998;46.256;7.534;2023-04-02T09:55:21;86514.22;;;19.56;46.49
43838;BME280;65998;46.256;7.534;2023-04-02T09:57:49;86516.13;;;19.59;46.71
43838;BME280;65998;46.256;7.534;2023-04-02T10:03:02;86516.78;;;19.60;46.63
43838;BME280;65998;46.256;7.534;2023-04-02T10:05:29;86519.69;;;19.58;46.62
43838;BME280;65998;46.256;7.534;2023-04-02T10:08:06;86512.78;;;19.57;46.72
43838;BME280;65998;46.256;7.534;2023-04-02T10:10:42;86512.66;;;19.59;47.67
43838;BME280;65998;46.256;7.534;2023-04-02T10:13:26;86513.34;;;19.59;48.48
43838;BME280;65998;46.256;7.534;2023-04-02T10:16:15;86516.91;;;19.58;48.24
43838;BME280;65998;46.256;7.534;2023-04-02T10:21:36;86512.19;;;19.54;48.15
43838;BME280;65998;46.256;7.534;2023-04-02T10:24:14;86517.09;;;19.54;47.83
43838;BME280;65998;46.256;7.534;2023-04-02T10:32:25;86519.38;;;19.49;47.19
43838;BME280;65998;46.256;7.534;2023-04-02T10:35:04;86514.59;;;19.48;47.17
43838;BME280;65998;46.256;7.534;2023-04-02T10:56:37;86517.31;;;19.35;46.93
43838;BME280;65998;46.256;7.534;2023-04-02T10:59:04;86518.28;;;19.29;46.93
43838;BME280;65998;46.256;7.534;2023-04-02T11:01:35;86518.94;;;19.30;46.88
43838;BME280;65998;46.256;7.534;2023-04-02T11:04:10;86512.59;;;19.31;46.67
43838;BME280;65998;46.256;7.534;2023-04-02T11:06:45;86525.84;;;19.31;46.75
43838;BME280;65998;46.256;7.534;2023-04-02T11:09:25;86517.59;;;19.29;46.79
43838;BME280;65998;46.256;7.534;2023-04-02T11:11:55;86519.13;;;19.26;46.86
43838;BME280;65998;46.256;7.534;2023-04-02T11:14:28;86518.56;;;19.23;46.66
43838;BME280;65998;46.256;7.534;2023-04-02T11:16:56;86524.03;;;19.25;46.69
43838;BME280;65998;46.256;7.534;2023-04-02T11:32:37;86525.97;;;19.14;46.55
43838;BME280;65998;46.256;7.534;2023-04-02T11:35:24;86533.66;;;19.13;46.59
43838;BME280;65998;46.256;7.534;2023-04-02T11:37:53;86533.84;;;19.09;46.69
43838;BME280;65998;46.256;7.534;2023-04-02T11:46:04;86541.03;;;19.04;46.58
43838;BME280;65998;46.256;7.534;2023-04-02T11:48:32;86541.03;;;19.04;46.58
43838;BME280;65998;46.256;7.534;2023-04-02T11:50:58;86540.56;;;19.00;46.52
43838;BME280;65998;46.256;7.534;2023-04-02T11:53:31;86542.47;;;19.03;46.64
43838;BME280;65998;46.256;7.534;2023-04-02T12:01:53;86551.03;;;18.99;46.47
43838;BME280;65998;46.256;7.534;2023-04-02T12:09:52;86558.31;;;18.92;46.46
43838;BME280;65998;46.256;7.534;2023-04-02T12:12:32;86551.41;;;18.91;46.43
43838;BME280;65998;46.256;7.534;2023-04-02T12:14:59;86551.69;;;18.85;46.46
43838;BME280;65998;46.256;7.534;2023-04-02T12:17:34;86552.94;;;18.88;46.51
43838;BME280;65998;46.256;7.534;2023-04-02T12:22:34;86558.78;;;18.82;46.56
43838;BME280;65998;46.256;7.534;2023-04-02T12:25:06;86555.25;;;18.84;46.61
43838;BME280;65998;46.256;7.534;2023-04-02T12:27:40;86558.97;;;18.78;46.47
43838;BME280;65998;46.256;7.534;2023-04-02T12:30:22;86557.34;;;18.83;46.37
43838;BME280;65998;46.256;7.534;2023-04-02T12:32:48;86558.97;;;18.78;46.17
43838;BME280;65998;46.256;7.534;2023-04-02T12:35:28;86558.22;;;18.79;46.35
43838;BME280;65998;46.256;7.534;2023-04-02T12:37:55;86562.69;;;18.72;46.32
43838;BME280;65998;46.256;7.534;2023-04-02T12:40:21;86561.34;;;18.71;46.40
43838;BME280;65998;46.256;7.534;2023-04-02T12:42:47;86564.91;;;18.70;46.43
43838;BME280;65998;46.256;7.534;2023-04-02T12:45:27;86558.50;;;18.73;46.36
43838;BME280;65998;46.256;7.534;2023-04-02T12:47:56;86564.22;;;18.69;46.41
43838;BME280;65998;46.256;7.534;2023-04-02T12:50:22;86562.19;;;18.68;46.46
43838;BME280;65998;46.256;7.534;2023-04-02T12:52:50;86556.53;;;18.70;46.41
43838;BME280;65998;46.256;7.534;2023-04-02T12:55:22;86551.06;;;18.68;46.42
43838;BME280;65998;46.256;7.534;2023-04-02T12:57:54;86555.28;;;18.67;46.42
43838;BME280;65998;46.256;7.534;2023-04-02T13:03:16;86552.59;;;18.65;46.39
43838;BME280;65998;46.256;7.534;2023-04-02T13:05:47;86554.13;;;18.62;46.38
43838;BME280;65998;46.256;7.534;2023-04-02T13:08:22;86547.91;;;18.61;46.33
43838;BME280;65998;46.256;7.534;2023-04-02T13:10:58;86553.47;;;18.61;46.32
43838;BME280;65998;46.256;7.534;2023-04-02T13:13:27;86556.31;;;18.59;46.38
43838;BME280;65998;46.256;7.534;2023-04-02T13:16:18;86550.06;;;18.59;46.29
43838;BME280;65998;46.256;7.534;2023-04-02T13:18:48;86549.59;;;18.54;46.45
43838;BME280;65998;46.256;7.534;2023-04-02T13:21:25;86549.50;;;18.56;46.29
43838;BME280;65998;46.256;7.534;2023-04-02T13:23:51;86548.41;;;18.49;46.41
43838;BME280;65998;46.256;7.534;2023-04-02T13:26:18;86538.81;;;18.46;46.48
43838;BME280;65998;46.256;7.534;2023-04-02T13:29:00;86540.66;;;18.51;46.32
43838;BME280;65998;46.256;7.534;2023-04-02T13:31:29;86538.81;;;18.46;46.38
43838;BME280;65998;46.256;7.534;2023-04-02T13:33:55;86538.25;;;18.43;46.48
43838;BME280;65998;46.256;7.534;2023-04-02T13:36:21;86540.53;;;18.39;46.36
43838;BME280;65998;46.256;7.534;2023-04-02T13:38:47;86538.44;;;18.39;46.43
43838;BME280;65998;46.256;7.534;2023-04-02T13:41:25;86530.56;;;18.44;46.30
43838;BME280;65998;46.256;7.534;2023-04-02T13:43:53;86534.97;;;18.39;46.36
43838;BME280;65998;46.256;7.534;2023-04-02T13:46:28;86537.00;;;18.40;46.33
43838;BME280;65998;46.256;7.534;2023-04-02T13:48:55;86535.72;;;18.37;46.42
43838;BME280;65998;46.256;7.534;2023-04-02T13:51:24;86537.84;;;18.37;46.36
43838;BME280;65998;46.256;7.534;2023-04-02T13:53:55;86537.16;;;18.36;46.45
43838;BME280;65998;46.256;7.534;2023-04-02T13:56:22;86551.25;;;18.32;46.36
43838;BME280;65998;46.256;7.534;2023-04-02T13:58:52;86542.25;;;18.32;46.37
43838;BME280;65998;46.256;7.534;2023-04-02T14:01:19;86544.34;;;18.31;46.41
43838;BME280;65998;46.256;7.534;2023-04-02T14:03:47;86543.88;;;18.27;46.48
43838;BME280;65998;46.256;7.534;2023-04-02T14:09:04;86545.78;;;18.30;46.25
43838;BME280;65998;46.256;7.534;2023-04-02T14:19:58;86549.50;;;18.25;46.41
43838;BME280;65998;46.256;7.534;2023-04-02T14:30:47;86555.25;;;18.21;46.38
43838;BME280;65998;46.256;7.534;2023-04-02T14:36:33;86556.88;;;18.15;46.37
43838;BME280;65998;46.256;7.534;2023-04-02T14:42:12;86557.63;;;18.14;46.46
43838;BME280;65998;46.256;7.534;2023-04-02T14:44:48;86565.38;;;18.11;46.46
43838;BME280;65998;46.256;7.534;2023-04-02T14:47:32;86554.94;;;18.12;46.39
43838;BME280;65998;46.256;7.534;2023-04-02T14:50:25;86568.16;;;18.11;46.46
43838;BME280;65998;46.256;7.534;2023-04-02T14:52:56;86564.81;;;18.09;46.45
43838;BME280;65998;46.256;7.534;2023-04-02T14:55:33;86557.91;;;18.08;46.46
43838;BME280;65998;46.256;7.534;2023-04-02T14:58:04;86560.75;;;18.06;47.46
